CheckWX is a tool to help pilots better visualize weather data.  It is not intended as a substitute for an official pre-flight weather briefing.

01:48:29 UTC

EGUN METAR
RAF Mildenhall Airport
Mildenhall, United Kingdom
Current

52 mins ago

EGUN 200056Z AUTO 22007KT 9999 CLR 12/12 A3004 RMK AO2 SLP176 T01180115 $
Observed
Aug-20 @ 00:56 UTC
Wind
  • 220° at 7 KTS
Visibility
10,000+ meters
Flight Rules
VFR
Cloud Levels
  • Clear skies
Temperature
12°C / 54°F
Dewpoint
12°C / 54°F
Humidity
100%
Altimeter
30.04" Hg
Pressure
1017.32 hPa
Previous

52 mins ago

EGUN 200056Z AUTO 22007KT 9999 CLR 12/12 A3004 RMK AO2 SLP176 T01180115 .
Observed
Aug-20 @ 00:56 UTC
Wind
  • 220° at 7 KTS
Visibility
10,000+ meters
Flight Rules
VFR
Cloud Levels
  • Clear skies
Temperature
12°C / 54°F
Dewpoint
12°C / 54°F
Humidity
100%
Altimeter
30.04" Hg
Pressure
1017.32 hPa
Previous

2 hours ago

EGUN 192356Z AUTO 22008KT 9999 CLR 12/11 A3004 RMK AO2 SLP176 T01230112 10172 20123 402070123 52012 .
Observed
Aug-19 @ 23:56 UTC
Wind
  • 220° at 8 KTS
Visibility
10,000+ meters
Flight Rules
VFR
Cloud Levels
  • Clear skies
Temperature
12°C / 54°F
Dewpoint
11°C / 52°F
Humidity
94%
Altimeter
30.04" Hg
Pressure
1017.32 hPa